Time;durP1;ratioP1;P1;durP2;ratioP2;P2;SDS_P1;SDS_P2;PMS_P1;PMS_P2;Temp;Humidity;BMP_temperature;BMP_pressure;BME280_temperature;BME280_humidity;BME280_pressure;Samples;Min_cycle;Max_cycle;Signal;HPM_P1;HPM_P2
2021/05/01 00:01:27;;;;;;;26.98;9.25;;;20.00;63.50;;;;;;5050392;28;20092;-66
2021/05/01 00:03:52;;;;;;;24.70;7.57;;;20.00;63.50;;;;;;5038913;28;20035;-65
2021/05/01 00:06:18;;;;;;;19.70;7.35;;;20.10;63.40;;;;;;5038836;28;20049;-65
2021/05/01 00:08:44;;;;;;;23.52;8.15;;;20.10;63.40;;;;;;5038601;28;20037;-65
2021/05/01 00:11:09;;;;;;;26.20;8.35;;;20.10;63.50;;;;;;5041135;28;20021;-64
2021/05/01 00:13:35;;;;;;;23.50;8.38;;;20.10;63.60;;;;;;5058726;28;20350;-65
2021/05/01 00:16:02;;;;;;;18.48;7.32;;;20.10;63.60;;;;;;5058681;28;20459;-66
2021/05/01 00:18:29;;;;;;;18.83;7.85;;;20.10;63.50;;;;;;5058987;28;20025;-64
2021/05/01 00:20:54;;;;;;;25.58;9.52;;;20.10;63.70;;;;;;5058748;28;20547;-65
2021/05/01 00:23:21;;;;;;;22.00;8.70;;;20.10;63.60;;;;;;5058252;28;20033;-65
2021/05/01 00:25:47;;;;;;;21.33;8.10;;;20.10;63.80;;;;;;5058915;28;20025;-66
2021/05/01 00:28:13;;;;;;;31.02;9.80;;;20.10;64.00;;;;;;5058881;28;20028;-66
2021/05/01 00:30:39;;;;;;;18.17;8.63;;;20.10;64.10;;;;;;5058998;28;20061;-67
2021/05/01 00:33:05;;;;;;;26.25;8.27;;;20.10;63.80;;;;;;5058460;28;20106;-65
2021/05/01 00:35:31;;;;;;;21.20;8.77;;;20.10;64.20;;;;;;5058599;28;20504;-64
2021/05/01 00:37:57;;;;;;;21.58;9.70;;;20.10;64.90;;;;;;5054906;28;20020;-65
2021/05/01 00:40:23;;;;;;;27.50;10.30;;;20.10;64.30;;;;;;5055313;28;20108;-64
2021/05/01 00:42:49;;;;;;;26.50;10.10;;;20.10;64.50;;;;;;5054948;28;20532;-65
2021/05/01 00:45:15;;;;;;;26.02;10.55;;;20.10;64.80;;;;;;5055669;28;20017;-65
2021/05/01 00:47:40;;;;;;;17.88;9.45;;;20.00;64.90;;;;;;5055683;28;20025;-65
2021/05/01 00:50:07;;;;;;;26.77;10.07;;;20.10;65.40;;;;;;5055344;28;20047;-64
2021/05/01 00:52:34;;;;;;;28.85;11.00;;;20.10;65.30;;;;;;5037367;28;20048;-64
2021/05/01 00:55:04;;;;;;;24.90;10.73;;;20.00;65.40;;;;;;5055027;28;20493;-67
2021/05/01 00:57:30;;;;;;;26.90;11.20;;;20.00;65.70;;;;;;5055365;28;20075;-64
2021/05/01 00:59:56;;;;;;;29.27;11.73;;;19.90;65.90;;;;;;5037420;28;20032;-65
2021/05/01 01:02:27;;;;;;;28.80;11.40;;;19.80;66.10;;;;;;5055070;28;20422;-64
2021/05/01 01:04:53;;;;;;;22.17;11.10;;;19.80;66.20;;;;;;5054888;28;20040;-64
2021/05/01 01:07:19;;;;;;;26.92;11.30;;;19.80;66.20;;;;;;5055037;28;20075;-64
2021/05/01 01:09:45;;;;;;;27.10;11.18;;;19.90;66.40;;;;;;5051069;28;20021;-65
2021/05/01 01:12:11;;;;;;;28.20;10.32;;;19.80;66.60;;;;;;5035179;28;20128;-65
2021/05/01 01:14:37;;;;;;;21.58;10.40;;;19.80;66.80;;;;;;5040840;28;20029;-66
2021/05/01 01:17:04;;;;;;;22.60;9.88;;;19.70;67.00;;;;;;5054950;28;20036;-66
2021/05/01 01:19:30;;;;;;;29.83;10.57;;;19.70;67.10;;;;;;5054662;28;20335;-65
2021/05/01 01:21:55;;;;;;;26.50;10.27;;;19.70;67.00;;;;;;5054773;28;20477;-66
2021/05/01 01:24:24;;;;;;;26.33;9.75;;;19.70;67.00;;;;;;5054042;28;20118;-66
2021/05/01 01:26:50;;;;;;;24.52;10.43;;;19.70;67.20;;;;;;5034875;28;20030;-64
2021/05/01 01:29:16;;;;;;;24.23;10.60;;;19.60;67.30;;;;;;5034835;28;20364;-65
2021/05/01 01:31:43;;;;;;;21.85;9.73;;;19.60;67.50;;;;;;5034663;28;20057;-65
2021/05/01 01:34:08;;;;;;;28.88;10.45;;;19.60;67.50;;;;;;5035659;28;20021;-65
2021/05/01 01:36:34;;;;;;;26.95;9.60;;;19.50;67.20;;;;;;5050754;28;20035;-65
2021/05/01 01:39:00;;;;;;;21.08;9.98;;;19.50;67.50;;;;;;5054228;28;20025;-66
2021/05/01 01:41:27;;;;;;;26.77;10.38;;;19.50;67.50;;;;;;5054388;28;20036;-64
2021/05/01 01:43:53;;;;;;;21.73;10.00;;;19.50;67.40;;;;;;5054518;28;20116;-65
2021/05/01 01:46:19;;;;;;;24.63;9.15;;;19.50;67.70;;;;;;5054053;28;20096;-64
2021/05/01 01:48:44;;;;;;;24.83;9.43;;;19.50;67.60;;;;;;5053289;28;20106;-65
2021/05/01 01:51:10;;;;;;;28.45;9.15;;;19.50;67.60;;;;;;5054284;28;20382;-65
2021/05/01 01:53:36;;;;;;;20.70;9.45;;;19.50;67.40;;;;;;5054318;28;20025;-64
2021/05/01 01:56:01;;;;;;;23.08;9.13;;;19.50;67.40;;;;;;5047979;28;20029;-64
2021/05/01 01:58:27;;;;;;;21.05;8.95;;;19.40;67.50;;;;;;5034207;28;20114;-64
2021/05/01 02:00:54;;;;;;;20.30;9.20;;;19.30;68.00;;;;;;5034054;28;20517;-65
2021/05/01 02:03:20;;;;;;;31.33;14.18;;;19.30;67.90;;;;;;5016227;28;20080;-65
2021/05/01 02:05:46;;;;;;;22.83;9.27;;;19.30;67.80;;;;;;5038533;28;20543;-64
2021/05/01 02:08:12;;;;;;;23.40;8.85;;;19.20;67.70;;;;;;5054145;28;20190;-63
2021/05/01 02:10:39;;;;;;;20.95;9.38;;;19.20;68.00;;;;;;5053853;28;20072;-65
2021/05/01 02:13:05;;;;;;;25.35;9.45;;;19.10;68.10;;;;;;5054122;28;20473;-65
2021/05/01 02:15:32;;;;;;;23.52;9.75;;;19.10;68.40;;;;;;5053953;28;20055;-65
2021/05/01 02:17:59;;;;;;;26.17;10.57;;;19.10;68.90;;;;;;5053453;28;20121;-65
2021/05/01 02:20:30;;;;;;;24.83;10.20;;;19.00;68.60;;;;;;5053651;28;20087;-64
2021/05/01 02:22:57;;;;;;;30.17;9.93;;;19.00;69.50;;;;;;5035642;28;20124;-64
2021/05/01 02:25:23;;;;;;;20.50;9.20;;;19.00;69.30;;;;;;5053211;28;20465;-65
2021/05/01 02:27:49;;;;;;;25.52;9.57;;;19.00;69.20;;;;;;5020047;28;20029;-66
2021/05/01 02:30:18;;;;;;;19.38;9.02;;;19.00;69.70;;;;;;5033672;28;20386;-65
2021/05/01 02:32:45;;;;;;;25.15;9.75;;;19.10;69.50;;;;;;5034023;28;20029;-64
2021/05/01 02:35:13;;;;;;;22.55;8.98;;;19.20;69.20;;;;;;5049514;28;20549;-64
2021/05/01 02:37:40;;;;;;;21.88;8.75;;;19.20;69.10;;;;;;5024547;28;20068;-66
2021/05/01 02:40:08;;;;;;;20.55;9.23;;;19.20;69.00;;;;;;5033492;28;20060;-67
2021/05/01 02:42:34;;;;;;;21.25;8.85;;;19.30;69.20;;;;;;5033304;28;20033;-64
2021/05/01 02:45:00;;;;;;;23.38;10.02;;;19.30;69.00;;;;;;4999287;28;20059;-65
2021/05/01 02:47:25;;;;;;;21.13;9.13;;;19.30;68.90;;;;;;5039789;28;20385;-64
2021/05/01 02:49:51;;;;;;;18.52;9.10;;;19.30;69.10;;;;;;5053052;28;20424;-67
2021/05/01 02:52:17;;;;;;;17.85;8.38;;;19.30;69.10;;;;;;5052958;28;20535;-64
2021/05/01 02:54:42;;;;;;;20.13;9.45;;;19.40;69.00;;;;;;5053130;28;20033;-67
2021/05/01 02:57:08;;;;;;;21.90;9.00;;;19.40;68.90;;;;;;5051423;28;20373;-66
2021/05/01 02:59:34;;;;;;;19.50;9.05;;;19.50;68.90;;;;;;5032813;28;20471;-66
2021/05/01 03:01:59;;;;;;;23.08;9.57;;;19.40;68.80;;;;;;5039465;28;20070;-65
2021/05/01 03:04:25;;;;;;;22.70;8.57;;;19.40;68.80;;;;;;5053217;28;20122;-66
2021/05/01 03:06:51;;;;;;;19.63;8.63;;;19.50;68.70;;;;;;5053653;28;20071;-65
2021/05/01 03:09:16;;;;;;;25.10;8.90;;;19.50;68.90;;;;;;5053095;28;20025;-65
2021/05/01 03:11:42;;;;;;;20.40;8.65;;;19.50;68.90;;;;;;5035166;28;20128;-66
2021/05/01 03:14:08;;;;;;;22.05;9.25;;;19.50;68.80;;;;;;5053193;28;20046;-67
2021/05/01 03:16:34;;;;;;;21.65;8.98;;;19.60;68.80;;;;;;5052992;28;20032;-65
2021/05/01 03:18:59;;;;;;;23.77;9.55;;;19.50;68.80;;;;;;5052982;28;20052;-65
2021/05/01 03:21:25;;;;;;;27.77;9.50;;;19.50;68.70;;;;;;5052952;28;20033;-64
2021/05/01 03:23:52;;;;;;;22.05;9.43;;;19.50;68.80;;;;;;5053033;28;20383;-65
2021/05/01 03:26:20;;;;;;;19.33;8.50;;;19.50;68.80;;;;;;5053119;28;20033;-65
2021/05/01 03:28:45;;;;;;;20.73;8.90;;;19.50;68.80;;;;;;5046476;28;20026;-67
2021/05/01 03:31:11;;;;;;;22.92;8.98;;;19.50;68.80;;;;;;5033006;28;20031;-65
2021/05/01 03:33:37;;;;;;;23.55;9.82;;;19.50;69.00;;;;;;5033166;28;20026;-65
2021/05/01 03:36:04;;;;;;;24.02;9.23;;;19.50;68.90;;;;;;5033216;28;20075;-65
2021/05/01 03:38:31;;;;;;;17.02;8.57;;;19.50;69.40;;;;;;5034553;28;20482;-64
2021/05/01 03:40:56;;;;;;;18.45;8.88;;;19.50;69.10;;;;;;5052528;28;20032;-65
2021/05/01 03:43:22;;;;;;;19.88;9.77;;;19.40;69.30;;;;;;5052764;28;20036;-66
2021/05/01 03:45:48;;;;;;;17.60;9.32;;;19.40;69.70;;;;;;5052872;28;20025;-64
2021/05/01 03:48:14;;;;;;;23.30;9.52;;;19.40;69.80;;;;;;5052972;28;20481;-65
2021/05/01 03:50:40;;;;;;;27.13;9.90;;;19.30;69.90;;;;;;5034594;28;20312;-66
2021/05/01 03:53:05;;;;;;;19.08;9.20;;;19.30;70.10;;;;;;5035066;28;20032;-67
2021/05/01 03:55:31;;;;;;;24.00;9.50;;;19.20;70.20;;;;;;5052901;28;20103;-65
2021/05/01 03:57:57;;;;;;;23.95;10.27;;;19.10;70.40;;;;;;5052438;28;20049;-66
2021/05/01 04:00:23;;;;;;;20.60;9.00;;;19.00;70.60;;;;;;5052355;28;20059;-66
2021/05/01 04:02:49;;;;;;;18.75;9.73;;;19.00;70.90;;;;;;5052516;28;20025;-65
2021/05/01 04:05:15;;;;;;;21.77;9.70;;;19.00;70.70;;;;;;5034679;28;20083;-65
2021/05/01 04:07:42;;;;;;;19.27;9.43;;;19.00;70.90;;;;;;5052885;28;20421;-63
2021/05/01 04:10:09;;;;;;;23.38;9.88;;;19.00;70.80;;;;;;5045863;28;20057;-66
2021/05/01 04:12:34;;;;;;;19.35;10.27;;;19.00;71.20;;;;;;5034932;28;20025;-65
2021/05/01 04:15:01;;;;;;;18.75;9.20;;;19.00;71.10;;;;;;5036440;28;20437;-66
2021/05/01 04:17:26;;;;;;;22.77;9.20;;;19.00;71.10;;;;;;5036455;28;20028;-66
2021/05/01 04:19:52;;;;;;;19.60;9.10;;;19.00;71.20;;;;;;5042243;28;20053;-65
2021/05/01 04:22:19;;;;;;;24.73;10.27;;;19.10;70.90;;;;;;5076138;28;20021;-64
2021/05/01 04:24:44;;;;;;;23.23;10.07;;;19.10;70.90;;;;;;5069302;28;20025;-66
2021/05/01 04:27:10;;;;;;;23.98;9.13;;;19.10;71.00;;;;;;5056445;28;20036;-65
2021/05/01 04:29:36;;;;;;;20.40;9.68;;;19.00;70.80;;;;;;5056295;28;20036;-65
2021/05/01 04:32:02;;;;;;;19.95;9.38;;;18.90;71.40;;;;;;5072618;28;20466;-65
2021/05/01 04:34:27;;;;;;;20.27;9.05;;;18.90;71.40;;;;;;5076153;28;20085;-66
2021/05/01 04:36:53;;;;;;;27.67;9.82;;;19.00;71.50;;;;;;5058177;28;20363;-65
2021/05/01 04:39:19;;;;;;;20.30;9.98;;;19.00;71.30;;;;;;5075999;28;20501;-66
2021/05/01 04:41:45;;;;;;;15.57;9.20;;;19.10;71.40;;;;;;5063933;28;20083;-67
2021/05/01 04:44:11;;;;;;;23.20;10.25;;;19.10;71.30;;;;;;5055787;28;20048;-65
2021/05/01 04:46:37;;;;;;;27.25;11.02;;;19.10;71.30;;;;;;5055999;28;20025;-64
2021/05/01 04:49:07;;;;;;;21.73;9.45;;;19.20;71.10;;;;;;5055802;28;20048;-65
2021/05/01 04:51:34;;;;;;;26.20;9.98;;;19.20;71.20;;;;;;5062610;28;20029;-65
2021/05/01 04:54:03;;;;;;;17.85;9.60;;;19.20;71.10;;;;;;5075496;28;20024;-65
2021/05/01 04:56:29;;;;;;;18.42;8.90;;;19.30;71.70;;;;;;5075629;28;20096;-65
2021/05/01 04:58:55;;;;;;;21.25;9.23;;;19.40;70.90;;;;;;5075977;28;20048;-66
2021/05/01 05:01:20;;;;;;;21.88;10.10;;;19.40;70.70;;;;;;5072498;28;20017;-69
2021/05/01 05:03:47;;;;;;;24.63;9.95;;;19.30;70.50;;;;;;5061321;28;20040;-68
2021/05/01 05:06:13;;;;;;;23.85;9.40;;;19.30;70.40;;;;;;5075600;28;20029;-66
2021/05/01 05:08:39;;;;;;;20.55;9.70;;;19.30;70.60;;;;;;5075321;28;20033;-68
2021/05/01 05:11:04;;;;;;;19.98;8.55;;;19.40;70.70;;;;;;5075233;28;20462;-66
2021/05/01 05:13:30;;;;;;;21.20;9.45;;;19.40;70.60;;;;;;5074944;28;20029;-66
2021/05/01 05:15:56;;;;;;;23.10;9.90;;;19.50;70.30;;;;;;5055458;28;20079;-67
2021/05/01 05:18:23;;;;;;;17.83;9.93;;;19.50;70.20;;;;;;5054908;28;20052;-64
2021/05/01 05:20:49;;;;;;;27.05;10.50;;;19.60;70.10;;;;;;5065981;22;20041;-67
2021/05/01 05:23:14;;;;;;;19.13;9.48;;;19.70;69.80;;;;;;5033354;28;20537;-68
2021/05/01 05:25:40;;;;;;;21.58;9.90;;;19.60;69.70;;;;;;5034665;28;20394;-69
2021/05/01 05:28:06;;;;;;;23.23;9.75;;;19.70;70.00;;;;;;5035032;28;20493;-70
2021/05/01 05:30:32;;;;;;;23.77;9.10;;;19.60;69.90;;;;;;5034811;28;20455;-68
2021/05/01 05:32:57;;;;;;;16.52;9.43;;;19.70;69.70;;;;;;5034850;28;20089;-70
2021/05/01 05:35:23;;;;;;;25.35;10.50;;;19.70;69.70;;;;;;5034066;28;20029;-67
2021/05/01 05:37:49;;;;;;;25.60;10.43;;;19.70;69.70;;;;;;5034702;28;20100;-70
2021/05/01 05:40:15;;;;;;;20.15;9.32;;;19.80;69.40;;;;;;5034675;28;20026;-67
2021/05/01 05:42:43;;;;;;;20.42;8.90;;;19.80;69.30;;;;;;5016700;28;20128;-67
2021/05/01 05:45:09;;;;;;;22.40;9.77;;;19.90;69.20;;;;;;5029252;28;20022;-67
2021/05/01 05:47:35;;;;;;;26.08;10.40;;;19.90;69.40;;;;;;5015007;28;20033;-68
2021/05/01 05:50:01;;;;;;;20.80;10.35;;;19.90;69.30;;;;;;5026016;28;20364;-67
2021/05/01 05:52:27;;;;;;;23.38;9.30;;;19.90;69.10;;;;;;5034282;28;20032;-67
2021/05/01 05:54:52;;;;;;;25.85;10.25;;;19.90;69.20;;;;;;5034539;28;20025;-66
2021/05/01 05:57:18;;;;;;;20.35;10.23;;;19.90;69.10;;;;;;5034625;28;20029;-66
2021/05/01 05:59:44;;;;;;;26.13;9.98;;;19.90;69.20;;;;;;5028275;28;20419;-68
2021/05/01 06:02:15;;;;;;;22.23;9.98;;;19.90;69.10;;;;;;5014490;28;20097;-67
2021/05/01 06:04:49;;;;;;;23.38;11.82;;;19.90;69.10;;;;;;5014260;28;20419;-68
2021/05/01 06:07:40;;;;;;;22.45;10.35;;;19.90;69.80;;;;;;5030690;28;20021;-67
2021/05/01 06:10:08;;;;;;;16.50;10.07;;;19.90;69.70;;;;;;5015524;28;20356;-67
2021/05/01 06:12:34;;;;;;;22.00;10.38;;;20.00;69.00;;;;;;5014046;28;20037;-67
2021/05/01 06:15:09;;;;;;;18.20;10.68;;;20.00;69.10;;;;;;5014468;28;20104;-68
2021/05/01 06:17:36;;;;;;;26.73;10.63;;;20.00;69.20;;;;;;5016660;28;20033;-66
2021/05/01 06:20:04;;;;;;;26.23;11.18;;;20.10;69.00;;;;;;5034058;28;20096;-69
2021/05/01 06:22:30;;;;;;;20.40;9.90;;;20.20;69.10;;;;;;5033760;28;20494;-68
2021/05/01 06:24:55;;;;;;;21.88;10.57;;;20.20;69.00;;;;;;5032988;28;20077;-67
2021/05/01 06:27:22;;;;;;;23.55;9.60;;;20.20;68.90;;;;;;5031834;28;20145;-67
2021/05/01 06:29:49;;;;;;;27.55;10.48;;;20.30;68.30;;;;;;5033818;28;20057;-69
2021/05/01 06:32:17;;;;;;;30.42;10.45;;;20.30;67.80;;;;;;5033585;28;20017;-68
2021/05/01 06:34:52;;;;;;;21.58;10.68;;;20.40;67.90;;;;;;5033068;28;20029;-70
2021/05/01 06:37:19;;;;;;;27.98;11.13;;;20.40;67.50;;;;;;5017052;28;20018;-68
2021/05/01 06:39:47;;;;;;;20.58;10.02;;;20.40;67.70;;;;;;5033455;28;20474;-69
2021/05/01 06:42:40;;;;;;;24.60;9.98;;;20.50;67.60;;;;;;5022384;28;20026;-69
2021/05/01 06:45:12;;;;;;;26.65;11.60;;;20.50;67.70;;;;;;5005673;28;20475;-68
2021/05/01 06:47:55;;;;;;;20.08;10.27;;;20.50;67.40;;;;;;5018778;28;20060;-69
2021/05/01 06:50:23;;;;;;;22.27;10.05;;;20.50;67.70;;;;;;5018177;28;20115;-70
2021/05/01 06:52:49;;;;;;;30.08;10.93;;;20.40;67.40;;;;;;5026586;28;20100;-69
2021/05/01 06:55:19;;;;;;;29.45;10.43;;;20.40;67.60;;;;;;5032456;28;20017;-71
2021/05/01 06:57:50;;;;;;;21.23;9.80;;;20.30;67.30;;;;;;5032858;28;20079;-71
2021/05/01 07:00:18;;;;;;;20.58;8.70;;;20.40;67.70;;;;;;5032499;28;20021;-70
2021/05/01 07:02:45;;;;;;;34.60;11.15;;;20.50;67.10;;;;;;5031701;28;20037;-70
2021/05/01 07:05:15;;;;;;;23.67;9.40;;;20.40;67.00;;;;;;5032401;28;20029;-69
2021/05/01 07:07:41;;;;;;;23.73;9.70;;;20.50;67.10;;;;;;5031873;28;20552;-70
2021/05/01 07:10:08;;;;;;;22.40;9.15;;;20.50;67.10;;;;;;5030565;28;20026;-69
2021/05/01 07:12:34;;;;;;;23.52;10.07;;;20.70;67.10;;;;;;5027478;28;20050;-74
2021/05/01 07:15:09;;;;;;;19.30;9.25;;;20.70;67.00;;;;;;5012858;28;20034;-69
2021/05/01 07:17:36;;;;;;;25.13;9.10;;;20.90;66.60;;;;;;5012450;28;20048;-72
2021/05/01 07:20:04;;;;;;;22.73;8.15;;;21.00;66.30;;;;;;5012790;28;20075;-72
2021/05/01 07:22:30;;;;;;;32.63;14.15;;;21.10;65.80;;;;;;5013788;28;20432;-72
2021/05/01 07:24:57;;;;;;;33.50;11.18;;;21.20;65.30;;;;;;5031717;28;20064;-69
2021/05/01 07:27:36;;;;;;;25.30;7.97;;;21.30;64.70;;;;;;5032316;28;20116;-68
2021/05/01 07:30:05;;;;;;;18.02;6.68;;;21.50;64.50;;;;;;5002452;28;20097;-70
2021/05/01 07:32:35;;;;;;;26.17;7.90;;;21.60;64.40;;;;;;5032028;28;20025;-71
2021/05/01 07:35:06;;;;;;;19.88;6.57;;;21.70;64.20;;;;;;5007077;28;20064;-70
2021/05/01 07:37:34;;;;;;;22.08;6.38;;;21.80;64.30;;;;;;4994666;28;20030;-69
2021/05/01 07:40:03;;;;;;;18.17;6.18;;;21.90;63.90;;;;;;5012218;28;20399;-69
2021/05/01 07:42:35;;;;;;;27.45;6.40;;;22.10;63.80;;;;;;5012085;28;20033;-67
2021/05/01 07:45:02;;;;;;;23.90;7.32;;;22.20;63.40;;;;;;5023764;28;20022;-70
2021/05/01 07:47:29;;;;;;;24.80;6.85;;;22.30;62.60;;;;;;4998415;28;20129;-70
2021/05/01 07:49:55;;;;;;;21.70;6.15;;;22.30;62.10;;;;;;5016535;28;20457;-67
2021/05/01 07:52:23;;;;;;;22.75;5.90;;;22.30;61.50;;;;;;5015784;28;20036;-69
2021/05/01 07:54:49;;;;;;;24.20;6.20;;;22.30;61.30;;;;;;5016017;28;20096;-68
2021/05/01 07:57:16;;;;;;;23.98;5.32;;;22.20;60.90;;;;;;5035189;28;20451;-65
2021/05/01 07:59:41;;;;;;;22.92;5.80;;;22.20;60.00;;;;;;5035988;28;20022;-66
2021/05/01 08:02:07;;;;;;;15.88;5.45;;;22.10;59.90;;;;;;5035977;28;20128;-65
2021/05/01 08:04:33;;;;;;;18.17;6.03;;;22.10;59.40;;;;;;5035599;28;20112;-68
2021/05/01 08:06:59;;;;;;;24.73;10.32;;;22.00;59.60;;;;;;5021319;28;20025;-69
2021/05/01 08:09:25;;;;;;;24.88;7.45;;;22.00;59.60;;;;;;5016216;28;20064;-67
2021/05/01 08:11:51;;;;;;;23.80;5.97;;;21.90;59.50;;;;;;5022675;28;20025;-69
2021/05/01 08:14:16;;;;;;;21.63;6.50;;;21.90;60.20;;;;;;5035199;28;20060;-69
2021/05/01 08:16:42;;;;;;;24.58;6.22;;;21.90;59.70;;;;;;5034785;28;20045;-69
2021/05/01 08:19:08;;;;;;;21.83;5.65;;;22.00;60.00;;;;;;5035725;28;20438;-67
2021/05/01 08:21:35;;;;;;;23.38;6.03;;;22.10;59.90;;;;;;5035570;28;20064;-69
2021/05/01 08:24:02;;;;;;;20.88;5.43;;;22.10;59.90;;;;;;5035509;28;20487;-68
2021/05/01 08:26:28;;;;;;;22.20;5.22;;;22.20;60.00;;;;;;5034691;28;20037;-69
2021/05/01 08:28:54;;;;;;;19.90;5.43;;;22.40;59.80;;;;;;5035074;28;20100;-69
2021/05/01 08:31:20;;;;;;;21.40;5.30;;;22.50;59.70;;;;;;5034973;28;20025;-68
2021/05/01 08:33:46;;;;;;;24.85;5.57;;;22.50;59.50;;;;;;5034959;28;20482;-67
2021/05/01 08:36:12;;;;;;;19.30;5.10;;;22.50;59.70;;;;;;5034902;28;20155;-68
2021/05/01 08:38:38;;;;;;;21.73;5.95;;;22.60;59.80;;;;;;5015495;28;20029;-67
2021/05/01 08:41:05;;;;;;;21.45;5.47;;;22.60;59.80;;;;;;5031760;28;20042;-68
2021/05/01 08:43:32;;;;;;;21.02;5.72;;;22.70;60.00;;;;;;5034684;28;20037;-67
2021/05/01 08:45:59;;;;;;;19.92;5.72;;;22.70;59.90;;;;;;5034891;28;20116;-67
2021/05/01 08:48:26;;;;;;;20.90;5.53;;;22.70;59.90;;;;;;5034217;28;20075;-68
2021/05/01 08:50:59;;;;;;;15.55;5.35;;;22.70;60.20;;;;;;5016608;28;20018;-68
2021/05/01 08:53:26;;;;;;;17.67;5.10;;;22.70;60.00;;;;;;5016576;28;20355;-68
2021/05/01 08:55:51;;;;;;;20.00;5.38;;;22.70;59.90;;;;;;5035044;28;20029;-67
2021/05/01 08:58:17;;;;;;;19.77;5.10;;;22.70;60.00;;;;;;5023059;28;20018;-70
2021/05/01 09:00:47;;;;;;;16.15;5.72;;;22.70;60.10;;;;;;4997257;28;20036;-69
2021/05/01 09:03:18;;;;;;;25.05;6.45;;;22.60;59.90;;;;;;4997894;28;20438;-66
2021/05/01 09:05:45;;;;;;;20.60;5.47;;;22.70;60.20;;;;;;5015025;28;20550;-70
2021/05/01 09:08:16;;;;;;;15.77;4.85;;;22.70;60.10;;;;;;5024774;28;20359;-70
2021/05/01 09:10:49;;;;;;;22.50;5.30;;;22.80;60.00;;;;;;5034593;28;20021;-71
2021/05/01 09:13:23;;;;;;;40.17;6.55;;;22.80;60.20;;;;;;5034924;28;20025;-70
2021/05/01 09:15:59;;;;;;;17.52;5.85;;;22.80;60.70;;;;;;5034654;28;20123;-70
2021/05/01 09:18:25;;;;;;;20.40;5.38;;;22.80;60.90;;;;;;5007671;28;20046;-70
2021/05/01 09:20:52;;;;;;;15.95;5.78;;;22.70;61.00;;;;;;5014973;28;20026;-68
2021/05/01 09:23:18;;;;;;;20.17;5.63;;;22.60;61.20;;;;;;5015287;28;20434;-71
2021/05/01 09:25:53;;;;;;;22.95;5.63;;;22.60;61.80;;;;;;5015067;28;20056;-71
2021/05/01 09:28:19;;;;;;;18.17;4.80;;;22.50;61.60;;;;;;5020216;28;20152;-73
2021/05/01 09:31:06;;;;;;;21.02;6.05;;;22.40;61.80;;;;;;5034852;28;20022;-70
2021/05/01 09:33:33;;;;;;;20.27;5.78;;;22.40;61.40;;;;;;5014890;28;20108;-72
2021/05/01 09:36:15;;;;;;;25.48;6.13;;;22.40;61.80;;;;;;5013873;28;20025;-70
2021/05/01 09:38:49;;;;;;;24.00;5.72;;;22.40;61.40;;;;;;5030929;28;20057;-69
2021/05/01 09:41:18;;;;;;;24.45;6.40;;;22.40;60.80;;;;;;5019248;28;20030;-69
2021/05/01 09:44:08;;;;;;;19.30;5.38;;;22.40;61.30;;;;;;5023361;28;20049;-71
2021/05/01 09:46:43;;;;;;;22.10;6.40;;;22.40;60.90;;;;;;5013940;28;20517;-70
2021/05/01 09:49:24;;;;;;;23.75;6.35;;;22.40;61.30;;;;;;5014742;28;20627;-71
2021/05/01 09:51:57;;;;;;;20.58;6.28;;;22.40;61.40;;;;;;5014423;28;20379;-72
2021/05/01 09:54:26;;;;;;;19.17;6.50;;;22.40;61.70;;;;;;5020840;28;20029;-71
2021/05/01 09:56:54;;;;;;;28.00;7.05;;;22.30;61.70;;;;;;5021915;28;20276;-70
2021/05/01 09:59:20;;;;;;;21.17;6.55;;;22.30;62.00;;;;;;5029393;28;20100;-71
2021/05/01 10:01:58;;;;;;;22.80;7.85;;;22.40;61.80;;;;;;5027753;28;20027;-70
2021/05/01 10:04:25;;;;;;;60.72;33.05;;;22.40;61.60;;;;;;5020346;28;20041;-70
2021/05/01 10:07:07;;;;;;;21.23;9.23;;;22.40;61.50;;;;;;5015680;28;20084;-73
2021/05/01 10:09:36;;;;;;;17.42;5.63;;;22.40;61.40;;;;;;5018159;28;20030;-70
2021/05/01 10:12:10;;;;;;;20.65;5.93;;;22.40;61.70;;;;;;4997282;28;20030;-69
2021/05/01 10:14:50;;;;;;;22.38;5.90;;;22.40;61.50;;;;;;5033837;28;20051;-68
2021/05/01 10:17:24;;;;;;;31.77;6.93;;;22.30;61.50;;;;;;5033129;28;20126;-72
2021/05/01 10:19:54;;;;;;;18.02;5.15;;;22.20;61.70;;;;;;5034129;28;20083;-70
2021/05/01 10:22:28;;;;;;;25.33;6.20;;;22.20;62.30;;;;;;5013804;28;20406;-69
2021/05/01 10:24:57;;;;;;;21.17;5.72;;;22.10;62.00;;;;;;5014286;28;20038;-71
2021/05/01 10:27:22;;;;;;;30.10;6.35;;;22.10;62.50;;;;;;5028755;28;20064;-70
2021/05/01 10:30:29;;;;;;;19.13;6.13;;;22.10;62.40;;;;;;5033892;28;20056;-74
2021/05/01 10:36:06;;;;;;;24.08;6.03;;;22.10;62.30;;;;;;5013884;28;20030;-67
2021/05/01 10:38:34;;;;;;;21.98;5.60;;;22.00;61.50;;;;;;5013739;28;20026;-70
2021/05/01 10:41:18;;;;;;;25.30;6.72;;;21.90;62.70;;;;;;5013296;28;20029;-72
2021/05/01 10:43:48;;;;;;;21.95;6.63;;;21.90;63.10;;;;;;5013852;28;20041;-73
2021/05/01 10:46:32;;;;;;;23.55;6.90;;;21.90;64.60;;;;;;5013789;28;20487;-76
2021/05/01 10:49:03;;;;;;;29.08;6.45;;;21.90;64.80;;;;;;5000203;28;20049;-74
2021/05/01 10:51:36;;;;;;;29.65;12.27;;;21.80;65.60;;;;;;5015233;28;20031;-72
2021/05/01 10:54:21;;;;;;;29.60;9.18;;;21.80;66.60;;;;;;5015339;28;20037;-75
2021/05/01 10:56:48;;;;;;;29.38;7.07;;;21.80;67.20;;;;;;5014774;28;20064;-67
2021/05/01 10:59:15;;;;;;;24.95;6.47;;;21.80;67.40;;;;;;4985061;28;20080;-70
2021/05/01 11:01:46;;;;;;;22.90;6.68;;;21.70;68.20;;;;;;5014432;28;20032;-70
2021/05/01 11:04:15;;;;;;;20.83;6.00;;;21.70;68.90;;;;;;5041413;28;20028;-71
2021/05/01 11:06:58;;;;;;;18.45;5.97;;;21.60;69.50;;;;;;5052680;28;20082;-72
2021/05/01 11:09:48;;;;;;;20.60;6.68;;;21.60;70.20;;;;;;5036821;28;20026;-73
2021/05/01 11:12:19;;;;;;;14.98;5.60;;;21.60;70.60;;;;;;5015144;28;20526;-72
2021/05/01 11:15:05;;;;;;;21.48;6.07;;;21.60;71.00;;;;;;5033138;28;20026;-73
2021/05/01 11:17:31;;;;;;;20.70;5.65;;;21.70;71.40;;;;;;5032938;28;20029;-72
2021/05/01 11:20:10;;;;;;;22.67;6.50;;;21.70;71.00;;;;;;5031933;28;20434;-78
2021/05/01 11:22:38;;;;;;;18.35;5.90;;;21.70;71.40;;;;;;5014783;28;20058;-72
2021/05/01 11:25:15;;;;;;;17.30;5.35;;;21.70;72.50;;;;;;5028785;28;20033;-76
2021/05/01 11:27:43;;;;;;;19.40;5.97;;;21.60;72.20;;;;;;5013338;28;20024;-72
2021/05/01 11:30:12;;;;;;;21.90;6.18;;;21.60;72.30;;;;;;5025306;28;20030;-70
2021/05/01 11:32:38;;;;;;;16.63;5.32;;;21.50;72.50;;;;;;5032569;28;20033;-72
2021/05/01 11:35:16;;;;;;;18.08;6.00;;;21.50;73.20;;;;;;5032823;28;20026;-68
2021/05/01 11:37:55;;;;;;;21.73;5.97;;;21.50;73.50;;;;;;5032816;28;20025;-73
2021/05/01 11:40:24;;;;;;;16.52;5.95;;;21.50;74.50;;;;;;5021520;28;20392;-78
2021/05/01 11:42:51;;;;;;;21.60;6.38;;;21.50;73.60;;;;;;5012795;28;20029;-72
2021/05/01 11:45:46;;;;;;;20.55;6.03;;;21.50;73.90;;;;;;5013006;28;20117;-70
2021/05/01 11:48:24;;;;;;;18.27;6.22;;;21.50;75.00;;;;;;5010740;28;20026;-72
2021/05/01 11:50:50;;;;;;;22.15;6.68;;;21.50;74.20;;;;;;5005587;28;20116;-73
2021/05/01 11:53:37;;;;;;;23.27;7.00;;;21.40;74.60;;;;;;5032025;28;20116;-73
2021/05/01 11:56:33;;;;;;;22.75;7.03;;;21.40;74.50;;;;;;5014502;28;20022;-72
2021/05/01 11:59:10;;;;;;;25.95;7.18;;;21.40;76.00;;;;;;5032329;28;20434;-71
2021/05/01 12:01:50;;;;;;;21.70;6.60;;;21.40;75.00;;;;;;5016353;28;20025;-76
2021/05/01 12:04:20;;;;;;;23.73;7.15;;;21.40;75.80;;;;;;5012290;28;20044;-74
2021/05/01 12:06:54;;;;;;;24.48;6.65;;;21.40;75.10;;;;;;5012316;28;20014;-74
2021/05/01 12:09:27;;;;;;;26.08;7.40;;;21.30;74.90;;;;;;5025343;28;20113;-74
2021/05/01 12:11:57;;;;;;;24.10;6.40;;;21.30;75.00;;;;;;5032240;28;20030;-73
2021/05/01 12:14:27;;;;;;;25.20;7.40;;;21.30;75.00;;;;;;5032325;28;20030;-74
2021/05/01 12:17:11;;;;;;;27.10;7.55;;;21.30;75.10;;;;;;5032525;28;20049;-72
2021/05/01 12:19:44;;;;;;;25.90;7.53;;;21.20;75.20;;;;;;5018817;28;20030;-70
2021/05/01 12:22:42;;;;;;;25.38;7.80;;;21.20;76.30;;;;;;5012277;28;20053;-73
2021/05/01 12:25:30;;;;;;;31.77;10.45;;;21.20;75.50;;;;;;4968979;28;20108;-71
2021/05/01 12:27:57;;;;;;;29.17;8.60;;;21.20;76.50;;;;;;5012868;28;20487;-73
2021/05/01 12:30:41;;;;;;;26.52;8.63;;;21.20;75.50;;;;;;5028022;28;20041;-78
2021/05/01 12:33:49;;;;;;;36.80;11.18;;;21.20;76.00;;;;;;5034548;28;20411;-80
2021/05/01 12:36:17;;;;;;;30.73;7.85;;;21.20;76.30;;;;;;4935127;29;20529;-72
2021/05/01 12:38:47;;;;;;;32.45;7.60;;;21.20;75.40;;;;;;4933921;29;20047;-70
2021/05/01 12:41:13;;;;;;;31.13;8.57;;;21.20;75.70;;;;;;4989807;28;20037;-71
2021/05/01 12:43:42;;;;;;;26.63;7.07;;;21.20;76.10;;;;;;5035384;28;20030;-73
2021/05/01 12:46:25;;;;;;;32.45;8.27;;;21.10;75.90;;;;;;5035255;28;20494;-72
2021/05/01 12:48:56;;;;;;;33.63;8.98;;;21.10;77.00;;;;;;5030333;28;20033;-73